createdAt,value
2019-02-02T00:01:24.095Z,7.60
2019-02-02T00:03:53.310Z,7.60
2019-02-02T00:06:22.328Z,7.70
2019-02-02T00:08:51.404Z,7.70
2019-02-02T00:11:20.478Z,7.70
2019-02-02T00:13:49.531Z,7.60
2019-02-02T00:16:18.693Z,7.70
2019-02-02T00:18:47.758Z,7.60
2019-02-02T00:21:16.870Z,7.60
2019-02-02T00:23:45.914Z,7.70
2019-02-02T00:26:14.870Z,7.70
2019-02-02T00:28:44.215Z,7.80
2019-02-02T00:31:13.385Z,7.80
2019-02-02T00:33:42.383Z,7.80
2019-02-02T00:36:11.788Z,7.90
2019-02-02T00:38:40.847Z,7.90
2019-02-02T00:41:10.836Z,8.00
2019-02-02T00:43:39.883Z,7.90
2019-02-02T00:46:09.370Z,7.80
2019-02-02T00:48:38.513Z,7.70
2019-02-02T00:51:07.513Z,7.50
2019-02-02T00:53:36.579Z,7.50
2019-02-02T00:56:06.634Z,7.50
2019-02-02T00:58:36.044Z,7.60
2019-02-02T01:01:06.109Z,7.40
2019-02-02T01:03:35.198Z,7.40
2019-02-02T01:06:05.166Z,7.40
2019-02-02T01:08:34.746Z,7.50
2019-02-02T01:11:04.579Z,7.50
2019-02-02T01:13:34.005Z,7.60
2019-02-02T01:16:03.436Z,7.60
2019-02-02T01:18:32.831Z,7.70
2019-02-02T01:21:02.050Z,7.80
2019-02-02T01:23:31.474Z,7.80
2019-02-02T01:26:00.528Z,7.80
2019-02-02T01:28:29.560Z,7.90
2019-02-02T01:30:58.625Z,7.90
2019-02-02T01:33:27.738Z,8.00
2019-02-02T01:35:56.805Z,8.00
2019-02-02T01:38:25.855Z,8.00
2019-02-02T01:40:55.406Z,8.00
2019-02-02T01:43:25.754Z,8.10
2019-02-02T01:45:54.806Z,8.10
2019-02-02T01:48:23.848Z,8.20
2019-02-02T01:50:53.236Z,8.20
2019-02-02T01:53:22.286Z,8.20
2019-02-02T01:55:51.236Z,8.30
2019-02-02T01:58:20.270Z,8.30
2019-02-02T02:00:49.584Z,8.30
2019-02-02T02:03:18.949Z,8.30
2019-02-02T02:05:48.343Z,8.40
2019-02-02T02:08:17.383Z,8.40
2019-02-02T02:10:46.727Z,8.40
2019-02-02T02:13:15.794Z,8.30
2019-02-02T02:15:44.848Z,8.30
2019-02-02T02:18:14.172Z,8.30
2019-02-02T02:20:43.817Z,8.30
2019-02-02T02:23:12.886Z,8.20
2019-02-02T02:25:41.915Z,8.30
2019-02-02T02:28:10.964Z,8.20
2019-02-02T02:30:40.032Z,8.20
2019-02-02T02:33:09.318Z,8.20
2019-02-02T02:35:38.328Z,8.10
2019-02-02T02:38:07.613Z,8.00
2019-02-02T02:40:37.014Z,8.00
2019-02-02T02:43:06.222Z,8.00
2019-02-02T02:45:35.246Z,7.90
2019-02-02T02:48:04.663Z,7.90
2019-02-02T02:50:33.709Z,7.90
2019-02-02T02:53:02.780Z,8.00
2019-02-02T02:55:31.762Z,8.00
2019-02-02T02:58:00.781Z,8.00
2019-02-02T03:00:29.834Z,8.00
2019-02-02T03:02:58.912Z,8.00
2019-02-02T03:05:28.006Z,8.00
2019-02-02T03:07:57.124Z,7.90
2019-02-02T03:10:26.814Z,7.90
2019-02-02T03:12:56.161Z,7.90
2019-02-02T03:15:25.245Z,7.90
2019-02-02T03:17:54.579Z,7.80
2019-02-02T03:20:24.112Z,7.70
2019-02-02T03:22:53.261Z,7.70
2019-02-02T03:25:23.812Z,7.70
2019-02-02T03:27:53.131Z,7.70
2019-02-02T03:30:22.403Z,7.70
2019-02-02T03:32:51.529Z,7.70
2019-02-02T03:35:22.690Z,7.70
2019-02-02T03:37:51.761Z,7.80
2019-02-02T03:40:21.965Z,7.80
2019-02-02T03:42:51.148Z,7.70
2019-02-02T03:45:21.878Z,7.60
2019-02-02T03:47:52.287Z,7.50
2019-02-02T03:50:21.334Z,7.60
2019-02-02T03:52:51.021Z,7.60
2019-02-02T03:55:20.070Z,7.70
2019-02-02T03:57:49.428Z,7.70
2019-02-02T04:00:19.845Z,7.70
2019-02-02T04:02:49.644Z,7.70
2019-02-02T04:05:21.284Z,7.70
2019-02-02T04:07:50.772Z,7.80
2019-02-02T04:10:19.966Z,7.80
2019-02-02T04:12:49.037Z,7.80
2019-02-02T04:15:18.722Z,7.80
2019-02-02T04:17:47.824Z,7.80
2019-02-02T04:20:18.931Z,7.80
2019-02-02T04:22:48.175Z,7.80
2019-02-02T04:25:18.472Z,7.80
2019-02-02T04:27:47.532Z,7.80
2019-02-02T04:30:18.916Z,7.80
2019-02-02T04:32:48.244Z,7.80
2019-02-02T04:35:17.363Z,7.70
2019-02-02T04:37:46.683Z,7.80
2019-02-02T04:40:15.964Z,7.80
2019-02-02T04:42:45.118Z,7.80
2019-02-02T04:45:14.590Z,7.80
2019-02-02T04:47:43.643Z,7.80
2019-02-02T04:50:14.431Z,7.80
2019-02-02T04:52:43.889Z,7.80
2019-02-02T04:55:14.531Z,7.70
2019-02-02T04:57:43.573Z,7.70
2019-02-02T05:00:19.018Z,7.70
2019-02-02T05:02:48.130Z,7.60
2019-02-02T05:05:17.198Z,7.60
2019-02-02T05:07:46.800Z,7.60
2019-02-02T05:10:17.652Z,7.50
2019-02-02T05:12:46.704Z,7.40
2019-02-02T05:15:16.146Z,7.30
2019-02-02T05:17:45.172Z,7.20
2019-02-02T05:20:15.230Z,7.20
2019-02-02T05:22:44.940Z,7.20
2019-02-02T05:25:14.161Z,7.30
2019-02-02T05:27:43.213Z,7.20
2019-02-02T05:30:15.974Z,7.20
2019-02-02T05:32:45.089Z,7.20
2019-02-02T05:35:14.160Z,7.30
2019-02-02T05:37:45.489Z,7.40
2019-02-02T05:40:15.671Z,7.40
2019-02-02T05:42:44.731Z,7.40
2019-02-02T05:45:16.343Z,7.50
2019-02-02T05:47:45.690Z,7.50
2019-02-02T05:50:16.853Z,7.50
2019-02-02T05:52:45.872Z,7.40
2019-02-02T05:55:18.696Z,7.40
2019-02-02T05:57:48.289Z,7.30
2019-02-02T06:00:37.810Z,7.30
2019-02-02T06:03:06.858Z,7.30
2019-02-02T06:05:35.919Z,7.20
2019-02-02T06:08:05.096Z,7.00
2019-02-02T06:10:34.155Z,7.00
2019-02-02T06:13:03.179Z,7.00
2019-02-02T06:15:32.236Z,7.00
2019-02-02T06:18:01.276Z,7.00
2019-02-02T06:20:30.321Z,7.10
2019-02-02T06:22:59.399Z,7.20
2019-02-02T06:25:28.515Z,7.30
2019-02-02T06:27:57.721Z,7.40
2019-02-02T06:30:27.034Z,7.50
2019-02-02T06:32:56.111Z,7.50
2019-02-02T06:35:25.639Z,7.60
2019-02-02T06:37:54.717Z,7.60
2019-02-02T06:40:23.668Z,7.70
2019-02-02T06:42:52.628Z,7.70
2019-02-02T06:45:30.542Z,7.70
2019-02-02T06:47:59.597Z,7.80
2019-02-02T06:50:28.690Z,7.80
2019-02-02T06:52:58.330Z,7.80
2019-02-02T06:55:27.640Z,7.70
2019-02-02T06:57:56.858Z,7.60
2019-02-02T07:00:26.622Z,7.50
2019-02-02T07:02:56.127Z,7.60
2019-02-02T07:05:25.171Z,7.60
2019-02-02T07:07:54.578Z,7.70
2019-02-02T07:10:25.522Z,7.70
2019-02-02T07:12:54.682Z,7.70
2019-02-02T07:15:25.941Z,7.80
2019-02-02T07:17:55.172Z,7.80
2019-02-02T07:20:24.374Z,7.80
2019-02-02T07:22:53.406Z,7.90
2019-02-02T07:25:22.418Z,7.90
2019-02-02T07:27:52.679Z,7.90
2019-02-02T07:30:28.593Z,7.90
2019-02-02T07:32:53.950Z,7.90
2019-02-02T07:35:23.012Z,7.90
2019-02-02T07:37:54.120Z,7.90
2019-02-02T07:40:23.192Z,7.90
2019-02-02T07:42:52.281Z,7.90
2019-02-02T07:45:23.577Z,7.90
2019-02-02T07:47:52.685Z,8.00
2019-02-02T07:50:22.349Z,8.00
2019-02-02T07:52:51.420Z,8.00
2019-02-02T07:55:20.594Z,8.00
2019-02-02T07:57:49.937Z,8.00
2019-02-02T08:00:41.160Z,8.10
2019-02-02T08:03:09.612Z,8.10
2019-02-02T08:05:39.280Z,8.00
2019-02-02T08:08:08.308Z,8.00
2019-02-02T08:10:37.626Z,8.00
2019-02-02T08:13:07.334Z,8.10
2019-02-02T08:15:36.407Z,8.10
2019-02-02T08:18:06.040Z,8.20
2019-02-02T08:20:35.414Z,8.20
2019-02-02T08:23:04.800Z,8.30
2019-02-02T08:25:34.145Z,8.30
2019-02-02T08:28:03.300Z,8.40
2019-02-02T08:30:35.791Z,8.40
2019-02-02T08:33:04.728Z,8.50
2019-02-02T08:35:33.747Z,8.50
2019-02-02T08:38:03.109Z,8.50
2019-02-02T08:40:32.678Z,8.50
2019-02-02T08:43:01.718Z,8.50
2019-02-02T08:45:30.742Z,8.50
2019-02-02T08:47:59.960Z,8.50
2019-02-02T08:50:31.494Z,8.50
2019-02-02T08:53:00.591Z,8.50
2019-02-02T08:55:31.656Z,8.50
2019-02-02T08:58:01.110Z,8.50
2019-02-02T09:00:30.190Z,8.50
2019-02-02T09:02:59.797Z,8.50
2019-02-02T09:05:28.894Z,8.50
2019-02-02T09:07:57.932Z,8.50
2019-02-02T09:10:28.275Z,8.50
2019-02-02T09:12:57.738Z,8.60
2019-02-02T09:15:27.053Z,8.60
2019-02-02T09:17:58.414Z,8.60
2019-02-02T09:20:27.837Z,8.70
2019-02-02T09:23:06.038Z,8.70
2019-02-02T09:25:28.085Z,8.70
2019-02-02T09:27:57.459Z,8.80
2019-02-02T09:30:28.810Z,8.80
2019-02-02T09:32:57.837Z,8.80
2019-02-02T09:35:27.170Z,8.80
2019-02-02T09:37:56.128Z,8.80
2019-02-02T09:40:26.471Z,8.70
2019-02-02T09:42:55.891Z,8.70
2019-02-02T09:45:25.371Z,8.60
2019-02-02T09:47:54.536Z,8.60
2019-02-02T09:50:24.921Z,8.70
2019-02-02T09:52:54.521Z,8.70
2019-02-02T09:55:24.010Z,8.70
2019-02-02T09:57:55.655Z,8.70
2019-02-02T10:00:27.066Z,8.80
2019-02-02T10:02:57.025Z,8.80
2019-02-02T10:05:26.860Z,8.80
2019-02-02T10:07:56.145Z,8.80
2019-02-02T10:10:26.929Z,8.80
2019-02-02T10:12:56.065Z,8.80
2019-02-02T10:15:25.188Z,8.90
2019-02-02T10:17:54.468Z,8.90
2019-02-02T10:20:25.289Z,8.90
2019-02-02T10:22:54.574Z,8.90
2019-02-02T10:25:25.599Z,8.90
2019-02-02T10:27:54.891Z,9.00
2019-02-02T10:30:38.551Z,9.00
2019-02-02T10:33:07.811Z,9.00
2019-02-02T10:35:37.183Z,9.10
2019-02-02T10:38:06.923Z,9.10
2019-02-02T10:40:36.073Z,9.20
2019-02-02T10:43:05.508Z,9.20
2019-02-02T10:45:35.317Z,9.20
2019-02-02T10:48:04.456Z,9.20
2019-02-02T10:50:33.629Z,9.20
2019-02-02T10:53:02.727Z,9.20
2019-02-02T10:55:31.756Z,9.10
2019-02-02T10:58:00.802Z,9.10
2019-02-02T11:00:32.628Z,9.10
2019-02-02T11:03:01.981Z,9.10
2019-02-02T11:05:31.207Z,9.10
2019-02-02T11:08:00.461Z,9.00
2019-02-02T11:10:31.306Z,9.00
2019-02-02T11:13:01.972Z,9.00
2019-02-02T11:15:31.120Z,9.00
2019-02-02T11:18:00.229Z,9.00
2019-02-02T11:20:31.311Z,8.90
2019-02-02T11:23:00.504Z,8.90
2019-02-02T11:25:29.673Z,8.80
2019-02-02T11:27:59.059Z,8.80
2019-02-02T11:30:29.079Z,8.70
2019-02-02T11:32:58.606Z,8.70
2019-02-02T11:35:27.684Z,8.70
2019-02-02T11:37:57.104Z,8.60
2019-02-02T11:40:28.319Z,8.60
2019-02-02T11:42:57.469Z,8.60
2019-02-02T11:45:26.949Z,8.60
2019-02-02T11:47:56.049Z,8.60
2019-02-02T11:50:25.147Z,8.60
2019-02-02T11:52:54.489Z,8.60
2019-02-02T11:55:23.640Z,8.50
2019-02-02T11:57:52.756Z,8.50
2019-02-02T12:00:24.194Z,8.50
2019-02-02T12:02:53.269Z,8.50
2019-02-02T12:05:22.979Z,8.50
2019-02-02T12:07:52.368Z,8.60
2019-02-02T12:10:22.664Z,8.60
2019-02-02T12:12:51.626Z,8.60
2019-02-02T12:15:20.677Z,8.60
2019-02-02T12:17:50.140Z,8.70
2019-02-02T12:20:19.367Z,8.70
2019-02-02T12:22:48.562Z,8.70
2019-02-02T12:25:18.019Z,8.70
2019-02-02T12:27:47.284Z,8.70
2019-02-02T12:30:21.306Z,8.70
2019-02-02T12:32:50.771Z,8.60
2019-02-02T12:35:21.624Z,8.70
2019-02-02T12:37:50.735Z,8.70
2019-02-02T12:40:20.458Z,8.70
2019-02-02T12:42:49.553Z,8.70
2019-02-02T12:45:21.332Z,8.60
2019-02-02T12:47:50.387Z,8.60
2019-02-02T12:50:19.389Z,8.50
2019-02-02T12:52:48.478Z,8.50
2019-02-02T12:55:17.500Z,8.50
2019-02-02T12:57:46.620Z,8.50
2019-02-02T13:00:17.345Z,8.50
2019-02-02T13:02:46.563Z,8.50
2019-02-02T13:05:17.545Z,8.50
2019-02-02T13:07:46.835Z,8.50
2019-02-02T13:10:18.799Z,8.50
2019-02-02T13:12:47.992Z,8.60
2019-02-02T13:15:17.488Z,8.70
2019-02-02T13:17:46.930Z,8.70
2019-02-02T13:20:16.575Z,8.70
2019-02-02T13:22:46.020Z,8.80
2019-02-02T13:25:16.896Z,8.70
2019-02-02T13:27:46.040Z,8.70
2019-02-02T13:30:26.570Z,8.70
2019-02-02T13:32:55.625Z,8.70
2019-02-02T13:35:24.748Z,8.80
2019-02-02T13:37:54.243Z,8.80
2019-02-02T13:40:24.178Z,8.80
2019-02-02T13:42:53.398Z,8.80
2019-02-02T13:45:22.485Z,8.80
2019-02-02T13:47:51.734Z,8.50
2019-02-02T13:50:20.877Z,8.50
2019-02-02T13:52:50.693Z,8.50
2019-02-02T13:55:19.767Z,8.50
2019-02-02T13:57:49.073Z,8.50
2019-02-02T14:00:29.314Z,8.50
2019-02-02T14:03:02.982Z,8.50
2019-02-02T14:05:29.186Z,8.60
2019-02-02T14:08:00.274Z,8.60
2019-02-02T14:10:30.920Z,8.50
2019-02-02T14:12:59.923Z,8.40
2019-02-02T14:15:28.967Z,8.40
2019-02-02T14:17:58.041Z,8.30
2019-02-02T14:20:27.198Z,8.30
2019-02-02T14:22:56.423Z,8.40
2019-02-02T14:25:25.846Z,8.30
2019-02-02T14:27:54.878Z,8.40
2019-02-02T14:30:25.398Z,8.20
2019-02-02T14:32:55.319Z,8.10
2019-02-02T14:35:26.061Z,7.90
2019-02-02T14:37:55.089Z,7.70
2019-02-02T14:40:24.126Z,7.60
2019-02-02T14:42:53.158Z,7.60
2019-02-02T14:45:23.284Z,7.50
2019-02-02T14:47:55.538Z,7.40
2019-02-02T14:50:23.360Z,7.30
2019-02-02T14:52:52.876Z,7.20
2019-02-02T14:55:26.823Z,7.10
2019-02-02T14:57:55.844Z,7.10
2019-02-02T15:00:26.827Z,7.10
2019-02-02T15:02:56.780Z,7.20
2019-02-02T15:05:26.525Z,7.30
2019-02-02T15:07:55.851Z,7.30
2019-02-02T15:10:25.880Z,7.40
2019-02-02T15:12:54.925Z,7.40
2019-02-02T15:15:23.959Z,7.40
2019-02-02T15:17:53.309Z,7.30
2019-02-02T15:20:33.904Z,7.30
2019-02-02T15:23:02.909Z,7.20
2019-02-02T15:25:32.015Z,7.20
2019-02-02T15:28:01.054Z,7.10
2019-02-02T15:30:30.633Z,7.10
2019-02-02T15:33:00.268Z,7.10
2019-02-02T15:35:29.901Z,7.00
2019-02-02T15:37:59.014Z,7.00
2019-02-02T15:40:31.508Z,7.10
2019-02-02T15:42:59.385Z,7.10
2019-02-02T15:45:29.579Z,7.20
2019-02-02T15:47:58.710Z,7.20
2019-02-02T15:50:28.093Z,7.20
2019-02-02T15:52:57.163Z,7.20
2019-02-02T15:55:26.237Z,7.20
2019-02-02T15:57:55.456Z,7.20
2019-02-02T16:00:26.613Z,7.20
2019-02-02T16:02:55.718Z,7.20
2019-02-02T16:05:25.158Z,7.20
2019-02-02T16:07:54.313Z,7.00
2019-02-02T16:10:25.227Z,7.00
2019-02-02T16:12:54.414Z,7.00
2019-02-02T16:15:23.598Z,7.00
2019-02-02T16:17:52.745Z,6.80
2019-02-02T16:20:33.804Z,6.90
2019-02-02T16:23:02.898Z,6.70
2019-02-02T16:25:32.377Z,6.50
2019-02-02T16:28:01.452Z,6.40
2019-02-02T16:30:30.791Z,6.30
2019-02-02T16:33:00.116Z,6.30
2019-02-02T16:35:29.208Z,6.40
2019-02-02T16:37:58.520Z,6.60
2019-02-02T16:40:28.514Z,6.50
2019-02-02T16:42:57.699Z,6.70
2019-02-02T16:45:28.725Z,6.70
2019-02-02T16:47:57.847Z,6.80
2019-02-02T16:50:27.364Z,6.80
2019-02-02T16:52:56.405Z,6.90
2019-02-02T16:55:25.607Z,6.90
2019-02-02T16:57:56.598Z,6.80
2019-02-02T17:00:30.761Z,6.80
2019-02-02T17:03:00.371Z,6.70
2019-02-02T17:05:29.825Z,6.70
2019-02-02T17:07:59.416Z,6.80
2019-02-02T17:10:30.769Z,6.70
2019-02-02T17:13:00.239Z,6.70
2019-02-02T17:15:30.947Z,6.70
2019-02-02T17:18:00.004Z,6.60
2019-02-02T17:20:32.649Z,6.60
2019-02-02T17:23:04.762Z,6.70
2019-02-02T17:25:33.896Z,6.70
2019-02-02T17:28:06.207Z,6.70
2019-02-02T17:30:35.913Z,6.70
2019-02-02T17:33:08.974Z,6.60
2019-02-02T17:35:38.791Z,6.60
2019-02-02T17:38:08.308Z,6.40
2019-02-02T17:40:37.391Z,6.30
2019-02-02T17:43:06.567Z,6.20
2019-02-02T17:45:35.938Z,6.30
2019-02-02T17:48:06.171Z,6.30
2019-02-02T17:50:35.280Z,6.30
2019-02-02T17:53:04.559Z,6.20
2019-02-02T17:55:33.785Z,6.10
2019-02-02T17:58:02.894Z,6.00
2019-02-02T18:00:59.908Z,6.00
2019-02-02T18:03:29.063Z,6.00
2019-02-02T18:05:58.600Z,5.90
2019-02-02T18:08:27.997Z,5.90
2019-02-02T18:10:57.684Z,5.80
2019-02-02T18:13:26.959Z,5.90
2019-02-02T18:15:56.117Z,6.00
2019-02-02T18:18:25.116Z,6.00
2019-02-02T18:20:54.222Z,5.90
2019-02-02T18:23:23.243Z,5.90
2019-02-02T18:25:52.718Z,5.90
2019-02-02T18:28:22.185Z,6.00
2019-02-02T18:30:51.251Z,6.10
2019-02-02T18:33:20.402Z,6.10
2019-02-02T18:35:49.475Z,6.20
2019-02-02T18:38:19.150Z,6.20
2019-02-02T18:40:48.235Z,6.10
2019-02-02T18:43:17.389Z,6.00
2019-02-02T18:45:46.419Z,6.10
2019-02-02T18:48:15.502Z,6.10
2019-02-02T18:50:44.568Z,6.20
2019-02-02T18:53:13.566Z,6.20
2019-02-02T18:56:01.435Z,6.20
2019-02-02T18:58:30.990Z,6.30
2019-02-02T19:01:00.030Z,6.30
2019-02-02T19:03:29.371Z,6.40
2019-02-02T19:05:58.331Z,6.30
2019-02-02T19:08:27.433Z,6.30
2019-02-02T19:10:56.373Z,6.10
2019-02-02T19:13:25.337Z,6.10
2019-02-02T19:15:54.456Z,6.10
2019-02-02T19:18:23.402Z,6.10
2019-02-02T19:20:52.833Z,6.10
2019-02-02T19:23:25.361Z,6.20
2019-02-02T19:25:52.765Z,6.10
2019-02-02T19:28:21.709Z,6.20
2019-02-02T19:30:53.527Z,6.20
2019-02-02T19:33:21.722Z,6.20
2019-02-02T19:35:51.065Z,6.20
2019-02-02T19:38:20.021Z,6.20
2019-02-02T19:40:49.077Z,6.20
2019-02-02T19:43:18.035Z,6.10
2019-02-02T19:45:47.410Z,6.00
2019-02-02T19:48:16.931Z,6.00
2019-02-02T19:50:45.960Z,6.00
2019-02-02T19:53:18.234Z,6.10
2019-02-02T19:55:47.548Z,7.60
2019-02-02T19:58:16.871Z,6.20
2019-02-02T20:00:46.275Z,6.10
2019-02-02T20:03:15.348Z,6.00
2019-02-02T20:05:44.374Z,6.00
2019-02-02T20:08:13.598Z,5.90
2019-02-02T20:10:42.650Z,5.80
2019-02-02T20:13:11.813Z,5.90
2019-02-02T20:15:41.114Z,5.90
2019-02-02T20:18:10.764Z,5.90
2019-02-02T20:20:40.105Z,5.90
2019-02-02T20:23:09.235Z,5.80
2019-02-02T20:25:38.144Z,5.80
2019-02-02T20:28:07.290Z,5.80
2019-02-02T20:30:36.386Z,5.80
2019-02-02T20:33:05.628Z,5.90
2019-02-02T20:35:41.944Z,5.80
2019-02-02T20:38:05.522Z,5.70
2019-02-02T20:40:34.670Z,5.70
2019-02-02T20:43:03.642Z,5.70
2019-02-02T20:45:36.381Z,5.70
2019-02-02T20:48:05.781Z,5.70
2019-02-02T20:50:36.223Z,5.70
2019-02-02T20:53:05.671Z,5.70
2019-02-02T20:55:38.224Z,5.70
2019-02-02T20:58:07.595Z,5.60
2019-02-02T21:00:37.752Z,5.70
2019-02-02T21:03:07.174Z,5.80
2019-02-02T21:05:36.893Z,5.70
2019-02-02T21:08:06.556Z,5.70
2019-02-02T21:10:36.834Z,5.80
2019-02-02T21:13:06.491Z,5.90
2019-02-02T21:15:35.905Z,5.70
2019-02-02T21:18:05.357Z,5.80
2019-02-02T21:20:35.125Z,5.70
2019-02-02T21:23:04.320Z,5.70
2019-02-02T21:25:34.082Z,5.50
2019-02-02T21:28:03.207Z,5.60
2019-02-02T21:30:34.548Z,5.60
2019-02-02T21:33:04.532Z,5.60
2019-02-02T21:35:34.652Z,5.70
2019-02-02T21:38:04.819Z,5.70
2019-02-02T21:40:35.103Z,5.70
2019-02-02T21:43:06.131Z,5.70
2019-02-02T21:45:36.961Z,5.70
2019-02-02T21:48:07.061Z,5.60
2019-02-02T21:50:37.169Z,5.70
2019-02-02T21:53:07.388Z,5.80
2019-02-02T21:55:36.987Z,5.90
2019-02-02T21:58:06.908Z,5.90
2019-02-02T22:00:38.756Z,5.90
2019-02-02T22:03:09.190Z,5.80
2019-02-02T22:05:39.001Z,5.80
2019-02-02T22:08:09.860Z,5.80
2019-02-02T22:10:39.908Z,5.80
2019-02-02T22:13:09.676Z,5.70
2019-02-02T22:15:39.024Z,5.70
2019-02-02T22:18:08.572Z,5.80
2019-02-02T22:20:37.962Z,5.70
2019-02-02T22:23:07.018Z,5.80
2019-02-02T22:25:36.124Z,5.70
2019-02-02T22:28:05.613Z,5.90
2019-02-02T22:30:36.284Z,6.00
2019-02-02T22:33:05.748Z,5.80
2019-02-02T22:35:35.032Z,5.80
2019-02-02T22:38:04.365Z,5.80
2019-02-02T22:40:33.584Z,5.90
2019-02-02T22:43:03.949Z,5.60
2019-02-02T22:45:33.108Z,5.80
2019-02-02T22:48:02.746Z,5.70
2019-02-02T22:50:32.098Z,5.70
2019-02-02T22:53:01.263Z,5.60
2019-02-02T22:55:30.413Z,5.60
2019-02-02T22:57:59.396Z,5.60
2019-02-02T23:01:02.593Z,5.70
2019-02-02T23:03:58.701Z,5.70
2019-02-02T23:06:49.991Z,5.70
2019-02-02T23:10:00.725Z,5.80
2019-02-02T23:13:12.812Z,5.80
2019-02-02T23:16:44.994Z,6.00
2019-02-02T23:19:14.185Z,6.00
2019-02-02T23:21:45.009Z,5.80
2019-02-02T23:24:14.520Z,5.70
2019-02-02T23:26:43.888Z,5.70
2019-02-02T23:29:13.142Z,5.70
2019-02-02T23:31:42.347Z,5.80
2019-02-02T23:34:11.945Z,5.90
2019-02-02T23:36:50.954Z,6.00
2019-02-02T23:39:13.671Z,6.00
2019-02-02T23:41:42.934Z,6.10
2019-02-02T23:44:12.255Z,6.10
2019-02-02T23:46:41.447Z,6.00
2019-02-02T23:49:10.638Z,6.10
2019-02-02T23:51:39.697Z,6.10
2019-02-02T23:54:09.421Z,6.20
2019-02-02T23:56:38.609Z,6.10
2019-02-02T23:59:07.617Z,6.00
